Time;durP1;ratioP1;P1;durP2;ratioP2;P2;SDS_P1;SDS_P2;PMS_P1;PMS_P2;Temp;Humidity;BMP_temperature;BMP_pressure;BME280_temperature;BME280_humidity;BME280_pressure;Samples;Min_cycle;Max_cycle;Signal;HPM_P1;HPM_P2
2023/08/30 00:00:18;;;;;;;;;;;12.30;66.10;;;;;;4119485;28;19949;-84
2023/08/30 00:02:19;;;;;;;;;;;12.30;66.10;;;;;;4121326;28;19964;-85
2023/08/30 00:04:41;;;;;;;;;;;12.30;66.10;;;;;;4118216;28;19924;-84
2023/08/30 00:07:02;;;;;;;;;;;12.30;66.20;;;;;;4107691;28;19914;-85
2023/08/30 00:09:22;;;;;;;;;;;12.30;66.50;;;;;;4115346;28;20082;-84
2023/08/30 00:11:43;;;;;;;;;;;12.20;66.60;;;;;;4116492;28;20484;-85
2023/08/30 00:14:05;;;;;;;;;;;12.20;66.70;;;;;;4118124;28;19928;-85
2023/08/30 00:16:26;;;;;;;;;;;12.20;66.80;;;;;;4119667;28;19922;-84
2023/08/30 00:18:46;;;;;;;;;;;12.30;67.00;;;;;;4117413;28;20151;-84
2023/08/30 00:21:07;;;;;;;;;;;12.20;67.00;;;;;;4111658;28;19989;-84
2023/08/30 00:23:28;;;;;;;;;;;12.20;67.10;;;;;;4127556;28;19918;-83
2023/08/30 00:25:48;;;;;;;;;;;12.20;67.20;;;;;;4121336;28;19965;-84
2023/08/30 00:28:09;;;;;;;;;;;12.20;67.20;;;;;;4116932;28;19944;-85
2023/08/30 00:30:30;;;;;;;;;;;12.10;67.20;;;;;;4117451;28;19921;-84
2023/08/30 00:32:50;;;;;;;;;;;12.10;67.20;;;;;;4118369;28;19922;-84
2023/08/30 00:35:11;;;;;;;;;;;12.10;67.20;;;;;;4131323;28;19928;-85
2023/08/30 00:37:31;;;;;;;;;;;12.10;67.40;;;;;;4138456;28;19906;-83
2023/08/30 00:39:52;;;;;;;;;;;12.20;67.50;;;;;;4153778;28;19928;-83
2023/08/30 00:42:13;;;;;;;;;;;12.10;67.50;;;;;;4141061;28;19918;-84
2023/08/30 00:44:33;;;;;;;;;;;12.10;67.50;;;;;;4137321;28;19917;-85
2023/08/30 00:46:54;;;;;;;;;;;12.00;67.30;;;;;;4120208;28;19921;-85
2023/08/30 00:49:14;;;;;;;;;;;12.00;66.80;;;;;;4120379;28;19924;-84
2023/08/30 00:51:35;;;;;;;;;;;12.10;67.20;;;;;;4122178;28;19932;-85
2023/08/30 00:53:56;;;;;;;;;;;12.10;67.20;;;;;;4120938;28;19922;-84
2023/08/30 00:56:17;;;;;;;;;;;12.00;67.30;;;;;;4122734;28;19929;-84
2023/08/30 00:58:38;;;;;;;;;;;12.00;67.30;;;;;;4133273;28;20063;-84
2023/08/30 01:00:58;;;;;;;;;;;12.00;67.30;;;;;;4131065;28;19997;-84
2023/08/30 01:03:21;;;;;;;;;;;12.00;67.50;;;;;;4117899;28;20013;-85
2023/08/30 01:05:42;;;;;;;;;;;12.00;67.50;;;;;;4121260;28;19988;-84
2023/08/30 01:08:02;;;;;;;;;;;12.00;67.70;;;;;;4121947;28;19979;-83
2023/08/30 01:10:06;;;;;;;;;;;12.00;67.90;;;;;;4119492;28;20320;-85
2023/08/30 01:12:12;;;;;;;;;;;12.00;68.10;;;;;;4121316;28;19922;-85
2023/08/30 01:14:14;;;;;;;;;;;12.00;68.20;;;;;;4118873;28;19914;-85
2023/08/30 01:16:16;;;;;;;;;;;12.00;68.30;;;;;;4119525;28;20028;-85
2023/08/30 01:18:18;;;;;;;;;;;12.00;68.40;;;;;;4117166;28;19941;-85
2023/08/30 01:20:21;;;;;;;;;;;12.00;68.40;;;;;;4133706;28;20649;-85
2023/08/30 01:22:31;;;;;;;;;;;12.00;68.50;;;;;;4116818;28;19917;-84
2023/08/30 01:24:37;;;;;;;;;;;12.10;68.60;;;;;;4137185;28;20498;-86
2023/08/30 01:26:44;;;;;;;;;;;12.10;68.70;;;;;;4100440;28;20554;-85
2023/08/30 01:29:05;;;;;;;;;;;12.10;68.80;;;;;;4129432;28;21234;-86
2023/08/30 01:31:27;;;;;;;;;;;12.10;68.80;;;;;;4119475;28;19940;-85
2023/08/30 01:33:48;;;;;;;;;;;12.20;68.70;;;;;;4119664;28;20051;-86
2023/08/30 01:36:09;;;;;;;;;;;12.20;68.60;;;;;;4116628;28;19986;-85
2023/08/30 01:38:30;;;;;;;;;;;12.30;68.80;;;;;;4113474;28;19917;-85
2023/08/30 01:40:52;;;;;;;;;;;12.20;68.60;;;;;;4115891;28;19918;-85
2023/08/30 01:43:13;;;;;;;;;;;12.30;68.60;;;;;;4117292;28;19921;-85
2023/08/30 01:45:35;;;;;;;;;;;12.40;68.70;;;;;;4120039;28;20184;-84
2023/08/30 01:47:57;;;;;;;;;;;12.30;68.70;;;;;;4117270;28;19972;-85
2023/08/30 01:50:17;;;;;;;;;;;12.40;68.70;;;;;;4119427;28;19920;-85
2023/08/30 01:52:38;;;;;;;;;;;12.40;68.90;;;;;;4116920;28;19914;-85
2023/08/30 01:54:59;;;;;;;;;;;12.50;68.80;;;;;;4117818;28;19957;-86
2023/08/30 01:57:20;;;;;;;;;;;12.40;69.00;;;;;;4123836;28;19922;-86
2023/08/30 01:59:41;;;;;;;;;;;12.50;69.30;;;;;;4118222;28;19928;-85
2023/08/30 02:01:41;;;;;;;;;;;12.50;69.30;;;;;;4119951;28;20380;-85
2023/08/30 02:03:45;;;;;;;;;;;12.50;69.40;;;;;;4120976;28;19922;-85
2023/08/30 02:06:02;;;;;;;;;;;12.50;69.50;;;;;;4135004;28;19917;-86
2023/08/30 02:08:14;;;;;;;;;;;12.50;69.60;;;;;;4127813;28;19921;-85
2023/08/30 02:10:35;;;;;;;;;;;12.60;69.70;;;;;;4114240;28;19922;-85
2023/08/30 02:12:57;;;;;;;;;;;12.70;69.90;;;;;;4116394;28;20008;-86
2023/08/30 02:15:18;;;;;;;;;;;12.70;70.00;;;;;;4115995;28;20049;-85
2023/08/30 02:17:39;;;;;;;;;;;12.70;70.10;;;;;;4120315;28;19918;-86
2023/08/30 02:20:00;;;;;;;;;;;12.70;70.20;;;;;;4123031;28;19988;-84
2023/08/30 02:22:20;;;;;;;;;;;12.80;70.30;;;;;;4116852;28;19914;-85
2023/08/30 02:24:41;;;;;;;;;;;12.80;70.30;;;;;;4119518;28;19914;-85
2023/08/30 02:27:01;;;;;;;;;;;12.90;70.50;;;;;;4119114;28;19909;-85
2023/08/30 02:29:22;;;;;;;;;;;12.90;70.60;;;;;;4117042;28;19918;-85
2023/08/30 02:31:23;;;;;;;;;;;12.90;70.50;;;;;;4116645;28;19922;-85
2023/08/30 02:33:23;;;;;;;;;;;13.00;70.70;;;;;;4117978;28;20233;-86
2023/08/30 02:35:24;;;;;;;;;;;13.00;70.70;;;;;;4119680;28;19945;-86
2023/08/30 02:37:24;;;;;;;;;;;13.10;70.80;;;;;;4133672;28;19918;-85
2023/08/30 02:39:25;;;;;;;;;;;13.10;70.70;;;;;;4117816;28;19914;-85
2023/08/30 02:41:26;;;;;;;;;;;13.00;70.70;;;;;;4128470;28;20037;-85
2023/08/30 02:43:27;;;;;;;;;;;13.10;70.80;;;;;;4122548;28;19924;-85
2023/08/30 02:45:28;;;;;;;;;;;13.10;70.80;;;;;;4118940;28;20009;-85
2023/08/30 02:47:29;;;;;;;;;;;13.20;70.90;;;;;;4118316;28;20153;-86
2023/08/30 02:49:29;;;;;;;;;;;13.10;70.80;;;;;;4131068;28;19921;-85
2023/08/30 02:51:30;;;;;;;;;;;13.20;70.90;;;;;;4112862;28;20013;-85
2023/08/30 02:53:50;;;;;;;;;;;13.10;70.90;;;;;;4115475;28;19919;-86
2023/08/30 02:55:55;;;;;;;;;;;13.20;71.10;;;;;;4100386;28;19953;-85
2023/08/30 02:58:16;;;;;;;;;;;13.20;71.60;;;;;;4119893;28;20345;-85
2023/08/30 03:00:39;;;;;;;;;;;13.20;71.30;;;;;;4115420;28;19969;-85
2023/08/30 03:02:40;;;;;;;;;;;13.20;71.40;;;;;;4134722;28;20007;-84
2023/08/30 03:05:00;;;;;;;;;;;13.30;71.30;;;;;;4116275;28;19921;-85
2023/08/30 03:07:21;;;;;;;;;;;13.30;71.10;;;;;;4116845;28;19926;-85
2023/08/30 03:09:41;;;;;;;;;;;13.30;71.40;;;;;;4114193;28;19959;-85
2023/08/30 03:12:02;;;;;;;;;;;13.40;71.50;;;;;;4120184;28;19967;-86
2023/08/30 03:14:23;;;;;;;;;;;13.40;71.40;;;;;;4130482;28;19979;-85
2023/08/30 03:16:46;;;;;;;;;;;13.40;71.50;;;;;;4117073;28;19993;-86
2023/08/30 03:19:07;;;;;;;;;;;13.40;71.50;;;;;;4117085;28;19926;-85
2023/08/30 03:21:27;;;;;;;;;;;13.40;71.50;;;;;;4131616;28;20573;-85
2023/08/30 03:23:48;;;;;;;;;;;13.40;71.50;;;;;;4133618;28;20032;-86
2023/08/30 03:26:09;;;;;;;;;;;13.50;72.10;;;;;;4118019;28;19921;-86
2023/08/30 03:28:30;;;;;;;;;;;13.40;71.30;;;;;;4115250;28;19921;-86
2023/08/30 03:30:51;;;;;;;;;;;13.50;71.50;;;;;;4124637;28;19917;-86
2023/08/30 03:33:12;;;;;;;;;;;13.60;71.50;;;;;;4117674;28;19909;-86
2023/08/30 03:35:33;;;;;;;;;;;13.40;71.10;;;;;;4118828;28;19925;-86
2023/08/30 03:37:54;;;;;;;;;;;13.50;71.20;;;;;;4114075;28;19918;-86
2023/08/30 03:39:55;;;;;;;;;;;13.40;71.20;;;;;;4110922;28;19925;-86
2023/08/30 03:41:55;;;;;;;;;;;13.50;71.40;;;;;;4115298;28;19922;-86
2023/08/30 03:43:56;;;;;;;;;;;13.50;71.30;;;;;;4117336;28;20960;-86
2023/08/30 03:46:17;;;;;;;;;;;13.50;71.30;;;;;;4115276;28;19975;-86
2023/08/30 03:48:37;;;;;;;;;;;13.50;71.20;;;;;;4113664;28;19918;-85
2023/08/30 03:50:58;;;;;;;;;;;13.50;71.20;;;;;;4117786;28;19918;-87
2023/08/30 03:53:19;;;;;;;;;;;13.40;71.10;;;;;;4116226;28;19913;-86
2023/08/30 03:55:40;;;;;;;;;;;13.50;71.30;;;;;;4129003;28;20686;-87
2023/08/30 03:58:01;;;;;;;;;;;13.40;71.20;;;;;;4119794;28;20576;-86
2023/08/30 04:00:21;;;;;;;;;;;13.40;71.30;;;;;;4117619;28;19932;-86
2023/08/30 04:02:42;;;;;;;;;;;13.50;71.30;;;;;;4115759;28;19925;-86
2023/08/30 04:05:08;;;;;;;;;;;13.40;71.40;;;;;;4118349;28;19918;-87
2023/08/30 04:07:28;;;;;;;;;;;13.40;71.30;;;;;;4116294;28;19930;-86
2023/08/30 04:09:49;;;;;;;;;;;13.40;71.40;;;;;;4115352;28;19923;-87
2023/08/30 04:11:51;;;;;;;;;;;13.50;72.20;;;;;;4114728;28;19922;-87
2023/08/30 04:13:52;;;;;;;;;;;13.50;71.60;;;;;;4115588;28;19924;-86
2023/08/30 04:15:53;;;;;;;;;;;13.40;71.50;;;;;;4100638;28;19922;-87
2023/08/30 04:17:54;;;;;;;;;;;13.40;71.50;;;;;;4119029;28;20438;-86
2023/08/30 04:19:54;;;;;;;;;;;13.50;71.40;;;;;;4116844;28;19956;-87
2023/08/30 04:21:55;;;;;;;;;;;13.50;71.50;;;;;;4118905;28;19914;-87
2023/08/30 04:23:55;;;;;;;;;;;13.50;71.40;;;;;;4114551;28;19913;-87
2023/08/30 04:25:58;;;;;;;;;;;13.50;71.50;;;;;;4115917;28;20020;-86
2023/08/30 04:28:19;;;;;;;;;;;13.50;71.60;;;;;;4127194;28;19956;-86
2023/08/30 04:30:40;;;;;;;;;;;13.60;71.70;;;;;;4115700;28;19913;-86
2023/08/30 04:33:02;;;;;;;;;;;13.60;71.90;;;;;;4116003;28;20021;-86
2023/08/30 04:35:23;;;;;;;;;;;13.50;71.80;;;;;;4119319;28;20000;-85
2023/08/30 04:37:43;;;;;;;;;;;13.60;71.90;;;;;;4121045;28;19972;-86
2023/08/30 04:40:10;;;;;;;;;;;13.60;71.70;;;;;;4121465;28;19914;-86
2023/08/30 04:42:31;;;;;;;;;;;13.50;71.50;;;;;;4119620;28;20208;-86
2023/08/30 04:44:52;;;;;;;;;;;13.60;71.90;;;;;;4122161;28;19928;-86
2023/08/30 04:47:12;;;;;;;;;;;13.60;72.60;;;;;;4121244;28;19924;-86
2023/08/30 04:49:33;;;;;;;;;;;13.60;73.20;;;;;;4122245;28;20032;-87
2023/08/30 04:51:53;;;;;;;;;;;13.60;72.40;;;;;;4123728;28;19961;-86
2023/08/30 04:54:14;;;;;;;;;;;13.70;72.20;;;;;;4128140;28;19961;-88
2023/08/30 04:56:35;;;;;;;;;;;13.70;72.40;;;;;;4123413;28;19921;-87
2023/08/30 04:58:57;;;;;;;;;;;13.80;72.90;;;;;;4124448;28;19929;-86
2023/08/30 05:01:17;;;;;;;;;;;13.70;72.60;;;;;;4122414;28;19914;-86
2023/08/30 05:03:18;;;;;;;;;;;13.80;73.00;;;;;;4122632;28;20548;-86
2023/08/30 05:05:18;;;;;;;;;;;13.70;73.00;;;;;;4118964;28;19921;-86
2023/08/30 05:07:19;;;;;;;;;;;13.80;72.90;;;;;;4124277;28;20418;-87
2023/08/30 05:09:40;;;;;;;;;;;13.80;73.50;;;;;;4121118;28;19921;-86
2023/08/30 05:12:01;;;;;;;;;;;13.80;73.30;;;;;;4118467;28;20274;-86
2023/08/30 05:14:21;;;;;;;;;;;13.80;73.20;;;;;;4132670;28;19922;-86
2023/08/30 05:16:45;;;;;;;;;;;13.80;72.90;;;;;;4125828;28;20399;-88
2023/08/30 05:19:05;;;;;;;;;;;13.90;73.00;;;;;;4150478;28;19910;-84
2023/08/30 05:21:26;;;;;;;;;;;13.80;72.90;;;;;;4143062;28;19937;-84
2023/08/30 05:23:47;;;;;;;;;;;13.90;73.00;;;;;;4146253;28;19989;-86
2023/08/30 05:26:09;;;;;;;;;;;13.90;73.10;;;;;;4142625;28;20131;-86
2023/08/30 05:28:30;;;;;;;;;;;13.90;73.10;;;;;;4137779;28;19913;-85
2023/08/30 05:30:50;;;;;;;;;;;14.00;73.20;;;;;;4125661;28;19910;-86
2023/08/30 05:32:51;;;;;;;;;;;14.10;73.30;;;;;;4123135;28;20348;-86
2023/08/30 05:34:51;;;;;;;;;;;14.00;73.20;;;;;;4126105;28;19925;-86
2023/08/30 05:36:53;;;;;;;;;;;14.00;73.20;;;;;;4123741;28;20380;-86
2023/08/30 05:38:55;;;;;;;;;;;14.10;73.30;;;;;;4129515;28;19939;-86
2023/08/30 05:41:15;;;;;;;;;;;14.00;73.10;;;;;;4122056;28;19918;-86
2023/08/30 05:43:36;;;;;;;;;;;14.10;73.20;;;;;;4127884;28;19910;-87
2023/08/30 05:46:01;;;;;;;;;;;14.20;73.30;;;;;;4124709;28;19922;-86
2023/08/30 05:48:22;;;;;;;;;;;14.20;73.30;;;;;;4125620;28;19910;-86
2023/08/30 05:50:42;;;;;;;;;;;14.20;73.30;;;;;;4127104;28;19905;-86
2023/08/30 05:53:03;;;;;;;;;;;14.20;73.30;;;;;;4126499;28;19937;-87
2023/08/30 05:55:24;;;;;;;;;;;14.20;73.20;;;;;;4126860;28;19921;-86
2023/08/30 05:57:45;;;;;;;;;;;14.30;73.30;;;;;;4126246;28;20000;-86
2023/08/30 06:00:06;;;;;;;;;;;14.30;73.40;;;;;;4128290;28;19965;-85
2023/08/30 06:02:10;;;;;;;;;;;14.40;73.50;;;;;;4144853;28;19933;-86
2023/08/30 06:04:10;;;;;;;;;;;14.50;73.50;;;;;;4134969;28;20655;-86
2023/08/30 06:06:11;;;;;;;;;;;14.50;73.50;;;;;;4139702;28;19996;-86
2023/08/30 06:08:12;;;;;;;;;;;14.50;73.50;;;;;;4124616;28;19906;-86
2023/08/30 06:10:12;;;;;;;;;;;14.50;73.50;;;;;;4124314;28;20333;-87
2023/08/30 06:12:13;;;;;;;;;;;14.50;73.50;;;;;;4122876;28;19925;-86
2023/08/30 06:14:14;;;;;;;;;;;14.60;73.60;;;;;;4127401;28;19922;-86
2023/08/30 06:16:15;;;;;;;;;;;14.60;73.60;;;;;;4109360;28;19917;-85
2023/08/30 06:18:15;;;;;;;;;;;14.60;74.00;;;;;;4121173;28;19921;-86
2023/08/30 06:20:19;;;;;;;;;;;14.70;73.90;;;;;;4126541;28;19909;-86
2023/08/30 06:22:42;;;;;;;;;;;14.70;73.80;;;;;;4125326;28;19914;-86
2023/08/30 06:25:04;;;;;;;;;;;14.70;73.90;;;;;;4127025;28;19910;-87
2023/08/30 06:27:24;;;;;;;;;;;14.80;73.90;;;;;;4123460;28;19917;-87
2023/08/30 06:29:45;;;;;;;;;;;14.80;73.90;;;;;;4127081;28;19917;-87
2023/08/30 06:32:06;;;;;;;;;;;14.90;73.90;;;;;;4124824;28;19976;-86
2023/08/30 06:34:27;;;;;;;;;;;14.90;73.90;;;;;;4125980;28;19964;-86
2023/08/30 06:36:48;;;;;;;;;;;15.00;74.00;;;;;;4137428;28;19913;-87
2023/08/30 06:39:08;;;;;;;;;;;15.00;74.20;;;;;;4121716;28;19914;-87
2023/08/30 06:41:29;;;;;;;;;;;15.10;74.20;;;;;;4121121;28;19983;-87
2023/08/30 06:43:49;;;;;;;;;;;15.20;74.50;;;;;;4134840;28;19917;-88
2023/08/30 06:46:10;;;;;;;;;;;15.20;74.30;;;;;;4124231;28;19956;-88
2023/08/30 06:48:10;;;;;;;;;;;15.30;74.40;;;;;;4120586;28;19918;-86
2023/08/30 06:50:11;;;;;;;;;;;15.30;74.20;;;;;;4125435;28;20591;-88
2023/08/30 06:52:11;;;;;;;;;;;15.30;74.00;;;;;;4124156;28;19914;-87
2023/08/30 06:54:12;;;;;;;;;;;15.40;73.90;;;;;;4136831;28;19927;-88
2023/08/30 06:56:13;;;;;;;;;;;15.40;73.80;;;;;;4124881;28;19914;-87
2023/08/30 06:58:36;;;;;;;;;;;15.50;73.80;;;;;;4120906;28;19946;-88
2023/08/30 07:00:37;;;;;;;;;;;15.50;73.50;;;;;;4111501;28;19933;-86
2023/08/30 07:02:58;;;;;;;;;;;15.60;73.20;;;;;;4121570;28;19918;-86
2023/08/30 07:05:18;;;;;;;;;;;15.60;73.00;;;;;;4131977;28;19964;-89
2023/08/30 07:07:39;;;;;;;;;;;15.70;73.20;;;;;;4123068;28;19993;-87
2023/08/30 07:10:00;;;;;;;;;;;15.70;73.30;;;;;;4124256;28;19976;-87
2023/08/30 07:12:20;;;;;;;;;;;15.90;73.60;;;;;;4123043;28;19910;-87
2023/08/30 07:14:21;;;;;;;;;;;15.90;73.20;;;;;;4124515;28;19957;-89
2023/08/30 07:16:22;;;;;;;;;;;15.90;73.00;;;;;;4141257;28;19913;-87
2023/08/30 07:18:23;;;;;;;;;;;16.00;72.90;;;;;;4126716;28;19953;-87
2023/08/30 07:20:44;;;;;;;;;;;16.00;72.90;;;;;;4124489;28;19921;-87
2023/08/30 07:22:45;;;;;;;;;;;16.10;73.00;;;;;;4128659;28;19914;-87
2023/08/30 07:25:05;;;;;;;;;;;16.10;73.00;;;;;;4124053;28;19961;-86
2023/08/30 07:27:28;;;;;;;;;;;16.20;73.10;;;;;;4122334;28;19918;-86
2023/08/30 07:29:48;;;;;;;;;;;16.20;73.20;;;;;;4124460;28;20005;-87
2023/08/30 07:32:09;;;;;;;;;;;16.30;73.10;;;;;;4120220;28;19913;-87
2023/08/30 07:34:30;;;;;;;;;;;16.40;73.20;;;;;;4120874;28;19906;-88
2023/08/30 07:36:50;;;;;;;;;;;16.40;73.10;;;;;;4122995;28;19918;-87
2023/08/30 07:39:11;;;;;;;;;;;16.40;73.10;;;;;;4128234;28;19933;-87
2023/08/30 07:41:33;;;;;;;;;;;16.50;73.00;;;;;;4142522;28;19914;-86
2023/08/30 07:43:34;;;;;;;;;;;16.60;72.90;;;;;;4142382;28;19969;-86
2023/08/30 07:45:34;;;;;;;;;;;16.70;72.80;;;;;;4146724;28;19912;-84
2023/08/30 07:47:35;;;;;;;;;;;16.70;72.80;;;;;;4147904;28;19930;-86
2023/08/30 07:49:35;;;;;;;;;;;16.80;72.70;;;;;;4145462;28;20097;-87
2023/08/30 07:51:36;;;;;;;;;;;16.80;72.50;;;;;;4147958;28;19924;-87
2023/08/30 07:53:37;;;;;;;;;;;16.80;72.60;;;;;;4144023;28;19918;-86
2023/08/30 07:55:38;;;;;;;;;;;16.90;72.60;;;;;;4148655;28;19930;-88
2023/08/30 07:57:40;;;;;;;;;;;16.90;72.60;;;;;;4144315;28;19902;-88
2023/08/30 08:00:00;;;;;;;;;;;17.00;72.60;;;;;;4135644;28;19922;-88
2023/08/30 08:02:21;;;;;;;;;;;17.10;72.50;;;;;;4124430;28;19909;-85
2023/08/30 08:04:42;;;;;;;;;;;17.10;72.40;;;;;;4122335;28;19914;-88
2023/08/30 08:07:04;;;;;;;;;;;17.10;72.30;;;;;;4124928;28;19917;-89
2023/08/30 08:09:25;;;;;;;;;;;17.20;72.10;;;;;;4124279;28;19914;-88
2023/08/30 08:11:46;;;;;;;;;;;17.30;72.00;;;;;;4122380;28;19917;-87
2023/08/30 08:14:06;;;;;;;;;;;17.40;72.00;;;;;;4125527;28;19957;-87
2023/08/30 08:16:27;;;;;;;;;;;17.40;72.00;;;;;;4125514;28;19917;-88
2023/08/30 08:18:47;;;;;;;;;;;17.40;71.70;;;;;;4120967;28;20008;-87
2023/08/30 08:21:08;;;;;;;;;;;17.50;71.90;;;;;;4122270;28;20016;-86
2023/08/30 08:23:29;;;;;;;;;;;17.50;71.70;;;;;;4123340;28;19968;-88
2023/08/30 08:25:49;;;;;;;;;;;17.60;71.70;;;;;;4125352;28;20000;-87
2023/08/30 08:28:10;;;;;;;;;;;17.60;71.60;;;;;;4122064;28;19921;-87
2023/08/30 08:30:30;;;;;;;;;;;17.70;71.50;;;;;;4124576;28;19917;-89
2023/08/30 08:32:31;;;;;;;;;;;17.70;71.40;;;;;;4124487;28;19909;-87
2023/08/30 08:34:31;;;;;;;;;;;17.80;71.40;;;;;;4124285;28;20339;-87
2023/08/30 08:36:32;;;;;;;;;;;17.80;71.20;;;;;;4126160;28;19909;-88
2023/08/30 08:38:33;;;;;;;;;;;17.90;71.20;;;;;;4139859;28;19920;-87
2023/08/30 08:41:00;;;;;;;;;;;17.90;71.10;;;;;;4120320;28;19933;-88
2023/08/30 08:43:21;;;;;;;;;;;18.00;71.10;;;;;;4124564;28;19933;-90
2023/08/30 08:45:42;;;;;;;;;;;18.00;70.90;;;;;;4125279;28;20045;-87
2023/08/30 08:48:03;;;;;;;;;;;18.10;70.80;;;;;;4133357;28;19914;-86
2023/08/30 08:50:24;;;;;;;;;;;18.10;70.80;;;;;;4142357;28;19922;-87
2023/08/30 08:52:46;;;;;;;;;;;18.20;70.80;;;;;;4126924;28;20280;-88
2023/08/30 08:55:06;;;;;;;;;;;18.30;70.70;;;;;;4127329;28;19929;-87
2023/08/30 08:57:07;;;;;;;;;;;18.30;70.60;;;;;;4128535;28;19914;-87
2023/08/30 08:59:08;;;;;;;;;;;18.40;70.60;;;;;;4126248;28;20566;-87
2023/08/30 09:01:28;;;;;;;;;;;18.40;70.40;;;;;;4137176;28;19938;-88
2023/08/30 09:03:50;;;;;;;;;;;18.50;70.30;;;;;;4127727;28;19914;-87
2023/08/30 09:05:51;;;;;;;;;;;18.50;70.10;;;;;;4129270;28;20297;-88
2023/08/30 09:08:13;;;;;;;;;;;18.60;70.10;;;;;;4126073;28;19917;-88
2023/08/30 09:10:34;;;;;;;;;;;18.60;70.00;;;;;;4125535;28;19914;-86
2023/08/30 09:12:55;;;;;;;;;;;18.70;69.80;;;;;;4138138;28;19921;-88
2023/08/30 09:15:16;;;;;;;;;;;18.70;69.60;;;;;;4127180;28;19972;-87
2023/08/30 09:17:39;;;;;;;;;;;18.70;70.00;;;;;;4126945;28;19921;-87
2023/08/30 09:20:10;;;;;;;;;;;18.80;69.30;;;;;;4121612;28;20264;-87
2023/08/30 09:22:37;;;;;;;;;;;18.80;68.90;;;;;;4120597;28;19933;-87
2023/08/30 09:24:58;;;;;;;;;;;18.90;68.80;;;;;;4121968;28;19961;-87
2023/08/30 09:27:18;;;;;;;;;;;18.90;68.80;;;;;;4127274;28;19946;-88
2023/08/30 09:29:43;;;;;;;;;;;19.00;68.80;;;;;;4119303;28;19925;-88
2023/08/30 09:32:04;;;;;;;;;;;19.00;68.60;;;;;;4126143;28;19929;-88
2023/08/30 09:34:27;;;;;;;;;;;19.10;68.80;;;;;;4124394;28;20368;-87
2023/08/30 09:36:50;;;;;;;;;;;19.20;68.90;;;;;;4125501;28;19960;-88
2023/08/30 09:39:11;;;;;;;;;;;19.20;68.80;;;;;;4123391;28;20390;-88
2023/08/30 09:41:33;;;;;;;;;;;19.30;68.80;;;;;;4127037;28;19909;-89
2023/08/30 09:43:54;;;;;;;;;;;19.40;68.10;;;;;;4126363;28;19952;-87
2023/08/30 09:46:15;;;;;;;;;;;19.40;67.60;;;;;;4125581;28;19921;-90
2023/08/30 09:48:37;;;;;;;;;;;19.50;67.90;;;;;;4126186;28;20375;-87
2023/08/30 09:50:59;;;;;;;;;;;19.60;67.60;;;;;;4124775;28;19913;-88
2023/08/30 09:53:20;;;;;;;;;;;19.60;67.70;;;;;;4122715;28;20440;-88
2023/08/30 09:55:21;;;;;;;;;;;19.70;67.20;;;;;;4141497;28;20359;-88
2023/08/30 09:57:22;;;;;;;;;;;19.70;65.10;;;;;;4128591;28;19965;-88
2023/08/30 09:59:23;;;;;;;;;;;19.80;64.30;;;;;;4123696;28;19914;-87
2023/08/30 10:01:25;;;;;;;;;;;19.80;63.40;;;;;;4108085;28;19922;-88
2023/08/30 10:03:25;;;;;;;;;;;19.80;64.20;;;;;;4123539;28;19918;-88
2023/08/30 10:05:26;;;;;;;;;;;19.90;65.10;;;;;;4122721;28;20472;-88
2023/08/30 10:07:27;;;;;;;;;;;19.90;64.60;;;;;;4113917;28;19918;-87
2023/08/30 10:09:30;;;;;;;;;;;19.90;62.00;;;;;;4123041;28;19941;-89
2023/08/30 10:11:34;;;;;;;;;;;20.00;62.00;;;;;;4141270;28;19961;-86
2023/08/30 10:13:54;;;;;;;;;;;20.10;62.30;;;;;;4123888;28;20376;-91
2023/08/30 10:16:18;;;;;;;;;;;20.10;63.40;;;;;;4148849;28;19949;-85
2023/08/30 10:18:39;;;;;;;;;;;20.10;63.40;;;;;;4148567;28;19970;-86
2023/08/30 10:21:01;;;;;;;;;;;20.10;63.70;;;;;;4144962;28;20529;-87
2023/08/30 10:23:23;;;;;;;;;;;20.20;60.50;;;;;;4138581;28;20275;-89
2023/08/30 10:25:44;;;;;;;;;;;20.20;60.50;;;;;;4124383;28;20133;-89
2023/08/30 10:27:46;;;;;;;;;;;20.30;62.10;;;;;;4127496;28;19976;-88
2023/08/30 10:29:48;;;;;;;;;;;20.30;62.70;;;;;;4127507;28;19906;-88
2023/08/30 10:31:49;;;;;;;;;;;20.30;62.30;;;;;;4145901;28;19960;-90
2023/08/30 10:33:50;;;;;;;;;;;20.40;60.60;;;;;;4127341;28;19924;-91
2023/08/30 10:35:51;;;;;;;;;;;20.40;60.70;;;;;;4140751;28;20012;-88
2023/08/30 10:38:12;;;;;;;;;;;20.40;60.90;;;;;;4124590;28;19909;-88
2023/08/30 10:40:33;;;;;;;;;;;20.50;59.40;;;;;;4127976;28;20458;-89
2023/08/30 10:43:03;;;;;;;;;;;20.50;59.80;;;;;;4124938;28;20357;-89
2023/08/30 10:45:24;;;;;;;;;;;20.50;59.90;;;;;;4123988;28;20548;-88
2023/08/30 10:47:45;;;;;;;;;;;20.60;60.30;;;;;;4129722;28;19910;-87
2023/08/30 10:50:06;;;;;;;;;;;20.60;61.00;;;;;;4129011;28;20276;-87
2023/08/30 10:52:28;;;;;;;;;;;20.60;60.80;;;;;;4125042;28;20435;-89
2023/08/30 10:54:36;;;;;;;;;;;20.70;61.20;;;;;;4130449;28;20057;-89
2023/08/30 10:56:58;;;;;;;;;;;20.70;61.20;;;;;;4141818;28;20284;-90
2023/08/30 10:59:19;;;;;;;;;;;20.80;61.50;;;;;;4124369;28;20400;-88
2023/08/30 11:01:20;;;;;;;;;;;20.90;61.40;;;;;;4141102;28;19917;-88
2023/08/30 11:03:41;;;;;;;;;;;20.90;59.60;;;;;;4124367;28;20382;-88
2023/08/30 11:05:49;;;;;;;;;;;20.90;58.80;;;;;;4127456;28;20068;-88
2023/08/30 11:07:50;;;;;;;;;;;20.90;56.50;;;;;;4126804;28;19937;-88
2023/08/30 11:10:11;;;;;;;;;;;21.00;57.20;;;;;;4135648;28;19918;-88
2023/08/30 11:12:33;;;;;;;;;;;21.00;57.10;;;;;;4124798;28;20021;-89
2023/08/30 11:14:41;;;;;;;;;;;21.00;56.60;;;;;;4121381;28;19933;-88
2023/08/30 11:17:02;;;;;;;;;;;21.00;55.80;;;;;;4119500;28;19960;-91
2023/08/30 11:19:22;;;;;;;;;;;21.00;57.30;;;;;;4124017;28;20493;-88
2023/08/30 11:21:44;;;;;;;;;;;21.10;58.00;;;;;;4124502;28;20455;-88
2023/08/30 11:24:06;;;;;;;;;;;21.10;58.20;;;;;;4122352;28;19922;-89
2023/08/30 11:26:26;;;;;;;;;;;21.10;58.20;;;;;;4123223;28;20422;-88
2023/08/30 11:28:48;;;;;;;;;;;21.10;56.60;;;;;;4124115;28;20801;-88
2023/08/30 11:31:08;;;;;;;;;;;21.20;57.30;;;;;;4127517;28;19976;-88
2023/08/30 11:33:29;;;;;;;;;;;21.20;57.30;;;;;;4124227;28;19954;-88
2023/08/30 11:35:51;;;;;;;;;;;21.30;57.70;;;;;;4135048;28;19913;-89
2023/08/30 11:38:13;;;;;;;;;;;21.30;57.60;;;;;;4129187;28;19910;-89
2023/08/30 11:40:34;;;;;;;;;;;21.30;55.80;;;;;;4122210;28;19921;-87
2023/08/30 11:42:54;;;;;;;;;;;21.40;57.00;;;;;;4121655;28;19910;-89
2023/08/30 11:45:15;;;;;;;;;;;21.40;53.80;;;;;;4141415;28;19909;-88
2023/08/30 11:47:35;;;;;;;;;;;21.50;55.50;;;;;;4122126;28;20387;-89
2023/08/30 11:49:57;;;;;;;;;;;21.40;53.50;;;;;;4125826;28;19924;-88
2023/08/30 11:52:18;;;;;;;;;;;21.40;56.00;;;;;;4131251;28;20132;-87
2023/08/30 11:54:38;;;;;;;;;;;21.50;55.90;;;;;;4144442;28;19909;-89
2023/08/30 11:56:59;;;;;;;;;;;21.40;55.20;;;;;;4126140;28;20004;-87
2023/08/30 11:58:59;;;;;;;;;;;21.40;54.70;;;;;;4129105;28;19910;-90
2023/08/30 12:01:01;;;;;;;;;;;21.40;55.10;;;;;;4123215;28;20339;-88
2023/08/30 12:03:01;;;;;;;;;;;21.30;54.00;;;;;;4139958;28;20288;-89
2023/08/30 12:05:02;;;;;;;;;;;21.30;52.60;;;;;;4140129;28;19913;-88
2023/08/30 12:07:04;;;;;;;;;;;21.30;53.80;;;;;;4120212;28;20025;-90
2023/08/30 12:09:09;;;;;;;;;;;21.20;51.70;;;;;;4137519;28;20271;-88
2023/08/30 12:11:19;;;;;;;;;;;21.20;51.70;;;;;;4120173;28;20375;-91
2023/08/30 12:13:23;;;;;;;;;;;21.10;52.50;;;;;;4123701;28;19961;-88
2023/08/30 12:15:34;;;;;;;;;;;21.00;52.80;;;;;;4142256;28;19910;-87
2023/08/30 12:17:54;;;;;;;;;;;21.00;53.40;;;;;;4128020;28;20315;-86
2023/08/30 12:20:17;;;;;;;;;;;21.00;51.80;;;;;;4123539;28;19925;-90
2023/08/30 12:22:38;;;;;;;;;;;20.90;52.30;;;;;;4128375;28;20358;-89
2023/08/30 12:24:59;;;;;;;;;;;20.90;52.50;;;;;;4139799;28;19928;-88
2023/08/30 12:27:20;;;;;;;;;;;20.80;53.10;;;;;;4127714;28;19910;-88
2023/08/30 12:29:41;;;;;;;;;;;20.80;53.50;;;;;;4125147;28;19914;-87
2023/08/30 12:32:01;;;;;;;;;;;20.70;52.20;;;;;;4122934;28;19917;-86
2023/08/30 12:34:22;;;;;;;;;;;20.70;53.30;;;;;;4125615;28;19914;-89
2023/08/30 12:36:23;;;;;;;;;;;20.70;53.40;;;;;;4139659;28;19909;-86
2023/08/30 12:38:24;;;;;;;;;;;20.60;52.60;;;;;;4112845;28;19906;-89
2023/08/30 12:40:25;;;;;;;;;;;20.60;53.20;;;;;;4129439;28;19914;-88
2023/08/30 12:42:45;;;;;;;;;;;20.70;53.20;;;;;;4124816;28;19922;-89
2023/08/30 12:45:07;;;;;;;;;;;20.70;53.60;;;;;;4123577;28;19965;-87
2023/08/30 12:47:32;;;;;;;;;;;20.70;53.30;;;;;;4130050;28;19918;-89
2023/08/30 12:49:52;;;;;;;;;;;20.70;53.60;;;;;;4126303;28;20052;-87
2023/08/30 12:52:13;;;;;;;;;;;20.80;54.30;;;;;;4126747;28;20339;-89
2023/08/30 12:54:14;;;;;;;;;;;20.80;53.10;;;;;;4122281;28;19971;-87
2023/08/30 12:56:15;;;;;;;;;;;20.80;51.20;;;;;;4123059;28;20424;-88
2023/08/30 12:58:15;;;;;;;;;;;20.80;51.40;;;;;;4128126;28;19914;-88
2023/08/30 13:00:36;;;;;;;;;;;20.80;51.00;;;;;;4123063;28;20009;-90
2023/08/30 13:02:57;;;;;;;;;;;20.90;51.20;;;;;;4138355;28;19971;-88